Disclaimer

Please do not use the information listed here in-flight or in-navigation, as they are not provided to us by the airports but are provided by volunteers, so they might be outdated.

Search


Regions


Airport information page

Radio informations:
ARRIVAL - 122.1 MHz

Airport informations:
Latitude: 53° 13' 43.00" N
Longitude: 005° 45' 38.00" E
Elevation: 3 feet - 1 meters
Operating hours: Remarks
Operating agency: Military
Timezone: UTC+1(+2DT) - 2300Z last Saturday in March to 2300Z last Saturday in October
Fuel: N/A

Runway information:
06/24 - 9701 x 164 feet< - >2957 x 50 meters
09/27 - 6559 x 164 feet< - >1999 x 50 meters

Recent METARs:
EHLW 210228Z AUTO 10014KT 030V180 9999 SCT014 OVC016 03/M00 Q1013 GRN
EHLW 210255Z AUTO 10015KT 030V160 9999 BKN013 OVC015 03/M00 Q1014 GRN
EHLW 210326Z AUTO 10014KT 010V180 9000 BR OVC014 02/M00 Q1014 GRN

Airport on the map: